createdAt,value
2022-12-03T00:00:02.581Z,63.26
2022-12-03T00:01:01.678Z,60.42
2022-12-03T00:02:01.654Z,47.28
2022-12-03T00:03:01.737Z,61.60
2022-12-03T00:04:01.819Z,54.45
2022-12-03T00:05:01.659Z,51.35
2022-12-03T00:06:01.620Z,47.81
2022-12-03T00:07:01.616Z,61.33
2022-12-03T00:08:01.656Z,63.80
2022-12-03T00:09:01.592Z,44.57
2022-12-03T00:10:01.619Z,59.51
2022-12-03T00:11:01.775Z,54.27
2022-12-03T00:12:01.779Z,55.96
2022-12-03T00:13:01.743Z,57.26
2022-12-03T00:14:01.742Z,58.42
2022-12-03T00:15:01.763Z,57.44
2022-12-03T00:16:01.724Z,58.10
2022-12-03T00:17:01.764Z,56.26
2022-12-03T00:18:01.772Z,57.24
2022-12-03T00:19:01.780Z,54.55
2022-12-03T00:20:01.726Z,55.17
2022-12-03T00:21:01.492Z,51.27
2022-12-03T00:22:01.482Z,63.93
2022-12-03T00:23:01.484Z,63.64
2022-12-03T00:24:01.483Z,49.77
2022-12-03T00:25:01.490Z,59.38
2022-12-03T00:26:01.456Z,56.48
2022-12-03T00:27:01.451Z,59.89
2022-12-03T00:28:01.447Z,59.59
2022-12-03T00:29:01.430Z,63.83
2022-12-03T00:30:01.460Z,60.69
2022-12-03T00:31:01.453Z,49.50
2022-12-03T00:32:01.407Z,68.39
2022-12-03T00:33:01.397Z,52.72
2022-12-03T00:34:01.394Z,58.61
2022-12-03T00:35:01.406Z,59.36
2022-12-03T00:36:01.373Z,46.11
2022-12-03T00:37:01.363Z,67.88
2022-12-03T00:38:01.368Z,60.20
2022-12-03T00:39:01.348Z,58.31
2022-12-03T00:40:01.373Z,60.79
2022-12-03T00:41:01.344Z,54.46
2022-12-03T00:42:01.321Z,56.55
2022-12-03T00:43:01.310Z,53.45
2022-12-03T00:44:01.307Z,52.98
2022-12-03T00:45:01.325Z,61.13
2022-12-03T00:46:01.333Z,63.79
2022-12-03T00:47:01.331Z,54.05
2022-12-03T00:48:01.279Z,60.89
2022-12-03T00:49:01.265Z,55.52
2022-12-03T00:50:01.286Z,56.63
2022-12-03T00:51:01.253Z,55.84
2022-12-03T00:52:01.244Z,60.18
2022-12-03T00:53:01.231Z,49.33
2022-12-03T00:54:01.226Z,52.07
2022-12-03T00:55:01.218Z,61.43
2022-12-03T00:56:01.402Z,51.27
2022-12-03T00:57:01.203Z,53.62
2022-12-03T00:58:01.203Z,58.09
2022-12-03T00:59:01.182Z,61.01
2022-12-03T01:00:01.173Z,58.71
2022-12-03T01:01:01.203Z,53.95
2022-12-03T01:02:01.228Z,45.46
2022-12-03T01:03:01.157Z,53.16
2022-12-03T01:04:01.151Z,48.75
2022-12-03T01:05:01.171Z,42.59
2022-12-03T01:06:01.176Z,42.08
2022-12-03T01:07:01.124Z,49.85
2022-12-03T01:08:01.178Z,53.51
2022-12-03T01:09:01.102Z,61.24
2022-12-03T01:10:01.096Z,57.11
2022-12-03T01:11:01.125Z,61.47
2022-12-03T01:12:01.096Z,65.48
2022-12-03T01:13:01.071Z,60.82
2022-12-03T01:14:01.072Z,50.80
2022-12-03T01:15:01.061Z,54.76
2022-12-03T01:16:01.122Z,50.64
2022-12-03T01:17:01.040Z,56.64
2022-12-03T01:18:01.029Z,57.71
2022-12-03T01:19:01.023Z,52.89
2022-12-03T01:20:01.020Z,59.18
2022-12-03T01:21:01.042Z,53.31
2022-12-03T01:22:01.027Z,56.58
2022-12-03T01:23:00.995Z,56.60
2022-12-03T01:24:01.001Z,62.46
2022-12-03T01:25:00.976Z,60.09
2022-12-03T01:26:01.010Z,65.70
2022-12-03T01:27:00.969Z,57.89
2022-12-03T01:28:00.957Z,53.85
2022-12-03T01:29:00.978Z,64.06
2022-12-03T01:30:00.940Z,59.81
2022-12-03T01:31:01.024Z,57.21
2022-12-03T01:32:00.937Z,44.27
2022-12-03T01:33:00.924Z,45.04
2022-12-03T01:34:00.923Z,49.47
2022-12-03T01:35:00.900Z,44.81
2022-12-03T01:36:00.921Z,53.59
2022-12-03T01:37:00.887Z,50.27
2022-12-03T01:38:00.873Z,54.47
2022-12-03T01:39:00.876Z,56.78
2022-12-03T01:40:00.863Z,58.37
2022-12-03T01:41:00.888Z,42.51
2022-12-03T01:42:00.845Z,59.28
2022-12-03T01:43:00.831Z,48.84
2022-12-03T01:44:00.820Z,50.43
2022-12-03T01:45:00.827Z,44.69
2022-12-03T01:46:00.836Z,49.85
2022-12-03T01:47:01.905Z,45.88
2022-12-03T01:48:00.804Z,63.78
2022-12-03T01:49:00.791Z,43.37
2022-12-03T01:50:00.784Z,42.31
2022-12-03T01:51:00.796Z,41.53
2022-12-03T01:52:00.771Z,44.72
2022-12-03T01:53:00.756Z,53.98
2022-12-03T01:54:00.775Z,45.56
2022-12-03T01:55:00.755Z,43.24
2022-12-03T01:56:00.761Z,44.99
2022-12-03T01:57:00.734Z,66.12
2022-12-03T01:58:00.731Z,53.11
2022-12-03T01:59:00.712Z,56.23
2022-12-03T02:00:00.710Z,59.41
2022-12-03T02:01:00.722Z,67.45
2022-12-03T02:02:00.789Z,66.17
2022-12-03T02:03:00.684Z,65.85
2022-12-03T02:04:00.713Z,44.81
2022-12-03T02:05:00.659Z,61.00
2022-12-03T02:06:00.685Z,48.75
2022-12-03T02:07:00.662Z,64.96
2022-12-03T02:08:00.785Z,52.23
2022-12-03T02:09:00.632Z,51.25
2022-12-03T02:10:00.615Z,57.00
2022-12-03T02:11:01.196Z,59.81
2022-12-03T02:12:00.614Z,56.79
2022-12-03T02:13:00.603Z,61.40
2022-12-03T02:14:00.589Z,51.11
2022-12-03T02:15:00.610Z,61.23
2022-12-03T02:16:00.648Z,51.17
2022-12-03T02:17:00.592Z,55.57
2022-12-03T02:18:00.562Z,48.06
2022-12-03T02:19:00.543Z,56.42
2022-12-03T02:20:00.543Z,60.91
2022-12-03T02:21:00.567Z,54.06
2022-12-03T02:22:00.522Z,54.09
2022-12-03T02:23:00.527Z,50.32
2022-12-03T02:24:00.509Z,42.53
2022-12-03T02:25:00.505Z,45.91
2022-12-03T02:26:00.525Z,58.28
2022-12-03T02:27:00.513Z,59.08
2022-12-03T02:28:00.478Z,47.06
2022-12-03T02:29:00.472Z,53.37
2022-12-03T02:30:00.465Z,53.44
2022-12-03T02:31:00.536Z,48.95
2022-12-03T02:32:00.524Z,42.45
2022-12-03T02:33:00.440Z,56.87
2022-12-03T02:34:00.427Z,51.88
2022-12-03T02:35:00.424Z,65.15
2022-12-03T02:36:03.525Z,43.91
2022-12-03T02:37:01.414Z,47.62
2022-12-03T02:38:00.406Z,62.95
2022-12-03T02:39:00.409Z,55.06
2022-12-03T02:40:00.385Z,52.29
2022-12-03T02:41:00.415Z,47.45
2022-12-03T02:42:00.370Z,65.05
2022-12-03T02:43:00.366Z,52.91
2022-12-03T02:44:00.361Z,42.93
2022-12-03T02:45:04.908Z,47.94
2022-12-03T02:46:02.374Z,49.89
2022-12-03T02:47:00.379Z,53.79
2022-12-03T02:48:00.322Z,51.03
2022-12-03T02:49:00.319Z,50.94
2022-12-03T02:50:00.303Z,52.66
2022-12-03T02:51:01.321Z,46.90
2022-12-03T02:52:00.294Z,67.95
2022-12-03T02:53:00.281Z,51.37
2022-12-03T02:54:00.283Z,50.97
2022-12-03T02:55:00.280Z,54.29
2022-12-03T02:56:00.297Z,66.12
2022-12-03T02:57:00.249Z,43.65
2022-12-03T02:58:00.247Z,49.03
2022-12-03T02:59:00.248Z,63.68
2022-12-03T03:00:00.239Z,45.46
2022-12-03T03:01:00.315Z,61.75
2022-12-03T03:02:00.272Z,49.74
2022-12-03T03:03:00.203Z,63.61
2022-12-03T03:04:00.242Z,57.74
2022-12-03T03:05:00.197Z,58.34
2022-12-03T03:06:00.188Z,46.90
2022-12-03T03:07:00.216Z,51.65
2022-12-03T03:08:00.270Z,42.09
2022-12-03T03:09:00.166Z,62.31
2022-12-03T03:10:00.151Z,57.43
2022-12-03T03:11:00.155Z,50.40
2022-12-03T03:12:00.165Z,47.60
2022-12-03T03:13:00.239Z,61.56
2022-12-03T03:14:01.125Z,58.12
2022-12-03T03:15:00.120Z,43.20
2022-12-03T03:16:00.223Z,49.84
2022-12-03T03:17:00.140Z,41.12
2022-12-03T03:18:00.089Z,45.20
2022-12-03T03:19:00.076Z,50.68
2022-12-03T03:20:00.081Z,53.89
2022-12-03T03:21:00.078Z,47.90
2022-12-03T03:22:00.088Z,60.38
2022-12-03T03:23:00.075Z,59.65
2022-12-03T03:24:00.042Z,49.50
2022-12-03T03:25:00.050Z,48.80
2022-12-03T03:26:00.046Z,50.79
2022-12-03T03:27:00.073Z,49.87
2022-12-03T03:28:00.006Z,43.65
2022-12-03T03:29:00.020Z,54.14
2022-12-03T03:29:59.995Z,44.53
2022-12-03T03:30:59.976Z,57.47
2022-12-03T03:32:01.103Z,58.63
2022-12-03T03:32:59.972Z,51.00
2022-12-03T03:33:59.957Z,41.46
2022-12-03T03:34:59.982Z,50.94
2022-12-03T03:35:59.947Z,63.51
2022-12-03T03:36:59.971Z,48.77
2022-12-03T03:37:59.947Z,55.11
2022-12-03T03:38:59.924Z,55.44
2022-12-03T03:39:59.915Z,40.68
2022-12-03T03:40:59.912Z,40.22
2022-12-03T03:41:59.924Z,40.25
2022-12-03T03:42:59.890Z,45.67
2022-12-03T03:43:59.884Z,52.62
2022-12-03T03:44:59.883Z,67.19
2022-12-03T03:45:59.899Z,48.56
2022-12-03T03:46:59.887Z,40.59
2022-12-03T03:47:59.846Z,52.97
2022-12-03T03:48:59.846Z,59.99
2022-12-03T03:49:59.834Z,57.33
2022-12-03T03:50:59.828Z,57.40
2022-12-03T03:51:59.844Z,49.01
2022-12-03T03:52:59.811Z,43.81
2022-12-03T03:53:59.811Z,56.13
2022-12-03T03:54:59.790Z,52.25
2022-12-03T03:55:59.796Z,42.77
2022-12-03T03:56:59.885Z,57.55
2022-12-03T03:57:59.777Z,58.38
2022-12-03T03:58:59.759Z,67.29
2022-12-03T03:59:59.760Z,54.02
2022-12-03T04:00:59.764Z,47.86
2022-12-03T04:01:59.775Z,64.00
2022-12-03T04:02:59.733Z,62.06
2022-12-03T04:03:59.860Z,59.19
2022-12-03T04:04:59.715Z,48.03
2022-12-03T04:05:59.703Z,53.77
2022-12-03T04:06:59.730Z,50.41
2022-12-03T04:07:59.780Z,56.48
2022-12-03T04:08:59.684Z,59.32
2022-12-03T04:09:59.682Z,53.83
2022-12-03T04:10:59.658Z,50.29
2022-12-03T04:12:00.688Z,54.08
2022-12-03T04:13:32.188Z,47.17
2022-12-03T04:13:59.654Z,41.33
2022-12-03T04:14:59.643Z,49.85
2022-12-03T04:15:59.628Z,50.62
2022-12-03T04:16:59.711Z,59.78
2022-12-03T04:17:59.618Z,60.41
2022-12-03T04:18:59.608Z,55.52
2022-12-03T04:19:59.602Z,55.47
2022-12-03T04:20:59.593Z,58.48
2022-12-03T04:21:59.609Z,48.92
2022-12-03T04:22:59.589Z,55.93
2022-12-03T04:23:59.573Z,59.21
2022-12-03T04:24:59.578Z,57.52
2022-12-03T04:25:59.560Z,56.46
2022-12-03T04:26:59.583Z,58.66
2022-12-03T04:27:59.542Z,59.62
2022-12-03T04:28:59.530Z,58.83
2022-12-03T04:29:59.526Z,68.39
2022-12-03T04:30:59.596Z,61.93
2022-12-03T04:31:59.542Z,66.53
2022-12-03T04:32:59.500Z,58.64
2022-12-03T04:33:59.492Z,55.42
2022-12-03T04:34:59.486Z,60.31
2022-12-03T04:35:59.554Z,65.87
2022-12-03T04:36:59.512Z,55.84
2022-12-03T04:37:59.458Z,59.67
2022-12-03T04:38:59.448Z,65.17
2022-12-03T04:39:59.461Z,57.50
2022-12-03T04:40:59.436Z,60.68
2022-12-03T04:41:59.460Z,63.96
2022-12-03T04:42:59.419Z,56.21
2022-12-03T04:43:59.416Z,63.70
2022-12-03T04:44:59.403Z,66.96
2022-12-03T04:45:59.466Z,60.68
2022-12-03T04:46:59.378Z,62.70
2022-12-03T04:47:59.481Z,59.59
2022-12-03T04:48:59.369Z,44.95
2022-12-03T04:49:59.365Z,51.53
2022-12-03T04:50:59.356Z,62.14
2022-12-03T04:51:59.340Z,47.47
2022-12-03T04:52:59.557Z,52.83
2022-12-03T04:53:59.335Z,53.98
2022-12-03T04:54:59.330Z,42.05
2022-12-03T04:55:59.320Z,53.13
2022-12-03T04:56:59.305Z,55.42
2022-12-03T04:57:59.328Z,57.27
2022-12-03T04:58:59.286Z,58.51
2022-12-03T04:59:59.282Z,58.43
2022-12-03T05:00:59.328Z,63.19
2022-12-03T05:01:59.379Z,59.88
2022-12-03T05:02:59.380Z,70.40
2022-12-03T05:03:59.245Z,63.54
2022-12-03T05:04:59.237Z,66.47
2022-12-03T05:05:59.236Z,61.47
2022-12-03T05:06:59.224Z,51.20
2022-12-03T05:07:59.323Z,60.07
2022-12-03T05:08:59.209Z,62.72
2022-12-03T05:09:59.205Z,56.72
2022-12-03T05:10:59.198Z,60.84
2022-12-03T05:11:59.195Z,51.53
2022-12-03T05:12:59.211Z,63.31
2022-12-03T05:13:59.178Z,50.91
2022-12-03T05:14:59.177Z,55.23
2022-12-03T05:15:59.160Z,64.15
2022-12-03T05:16:59.262Z,55.16
2022-12-03T05:17:59.157Z,56.34
2022-12-03T05:19:00.128Z,65.62
2022-12-03T05:19:59.125Z,61.22
2022-12-03T05:20:59.131Z,67.78
2022-12-03T05:21:59.110Z,59.78
2022-12-03T05:22:59.121Z,62.99
2022-12-03T05:23:59.084Z,63.45
2022-12-03T05:24:59.079Z,58.38
2022-12-03T05:25:59.087Z,56.33
2022-12-03T05:26:59.056Z,51.47
2022-12-03T05:27:59.085Z,64.36
2022-12-03T05:28:59.056Z,64.68
2022-12-03T05:29:59.043Z,54.79
2022-12-03T05:30:59.096Z,61.98
2022-12-03T05:31:59.029Z,60.29
2022-12-03T05:32:59.042Z,62.67
2022-12-03T05:33:59.017Z,71.63
2022-12-03T05:34:59.002Z,62.70
2022-12-03T05:35:59.003Z,64.53
2022-12-03T05:36:58.991Z,59.11
2022-12-03T05:37:58.999Z,60.10
2022-12-03T05:38:59.006Z,62.39
2022-12-03T05:39:58.970Z,53.77
2022-12-03T05:40:59.055Z,67.14
2022-12-03T05:41:58.954Z,60.36
2022-12-03T05:42:58.974Z,55.65
2022-12-03T05:43:58.935Z,56.74
2022-12-03T05:44:58.926Z,59.66
2022-12-03T05:45:59.030Z,63.12
2022-12-03T05:46:58.903Z,62.69
2022-12-03T05:47:58.904Z,66.64
2022-12-03T05:48:58.928Z,56.89
2022-12-03T05:49:58.902Z,64.17
2022-12-03T05:50:58.874Z,57.77
2022-12-03T05:51:59.064Z,61.79
2022-12-03T05:52:58.862Z,72.60
2022-12-03T05:53:58.880Z,64.43
2022-12-03T05:54:58.853Z,65.69
2022-12-03T05:55:58.864Z,69.00
2022-12-03T05:56:58.841Z,62.17
2022-12-03T05:57:58.831Z,64.29
2022-12-03T05:58:58.842Z,74.52
2022-12-03T05:59:58.807Z,68.12
2022-12-03T06:00:58.805Z,64.35
2022-12-03T06:01:58.788Z,60.67
2022-12-03T06:02:58.874Z,54.73
2022-12-03T06:03:58.870Z,63.40
2022-12-03T06:04:58.769Z,66.31
2022-12-03T06:05:58.780Z,56.12
2022-12-03T06:06:58.748Z,50.29
2022-12-03T06:07:58.793Z,59.57
2022-12-03T06:08:59.763Z,67.48
2022-12-03T06:09:58.726Z,61.24
2022-12-03T06:10:58.727Z,60.58
2022-12-03T06:11:58.713Z,58.13
2022-12-03T06:12:58.706Z,63.02
2022-12-03T06:13:58.719Z,66.31
2022-12-03T06:14:58.685Z,59.69
2022-12-03T06:15:58.757Z,64.37
2022-12-03T06:16:58.675Z,66.00
2022-12-03T06:17:58.672Z,52.07
2022-12-03T06:18:58.684Z,62.35
2022-12-03T06:19:58.651Z,61.83
2022-12-03T06:20:58.645Z,66.29
2022-12-03T06:21:58.634Z,51.81
2022-12-03T06:22:58.634Z,60.05
2022-12-03T06:23:58.649Z,66.15
2022-12-03T06:25:03.380Z,70.12
2022-12-03T06:26:00.592Z,64.86
2022-12-03T06:26:59.597Z,55.40
2022-12-03T06:27:58.594Z,63.47
2022-12-03T06:28:58.605Z,58.65
2022-12-03T06:29:58.569Z,63.67
2022-12-03T06:30:58.563Z,60.40
2022-12-03T06:31:59.556Z,59.51
2022-12-03T06:32:58.550Z,54.63
2022-12-03T06:33:58.568Z,63.43
2022-12-03T06:34:58.531Z,47.68
2022-12-03T06:35:58.528Z,61.00
2022-12-03T06:36:58.515Z,62.78
2022-12-03T06:37:58.511Z,59.23
2022-12-03T06:38:58.533Z,59.66
2022-12-03T06:39:58.499Z,68.31
2022-12-03T06:40:58.493Z,63.47
2022-12-03T06:41:58.477Z,65.05
2022-12-03T06:42:58.474Z,62.70
2022-12-03T06:43:58.496Z,67.18
2022-12-03T06:44:58.453Z,66.78
2022-12-03T06:45:58.441Z,59.84
2022-12-03T06:46:58.565Z,67.41
2022-12-03T06:47:58.434Z,61.30
2022-12-03T06:48:58.448Z,64.40
2022-12-03T06:49:58.412Z,61.47
2022-12-03T06:50:58.404Z,59.26
2022-12-03T06:51:58.435Z,50.27
2022-12-03T06:52:58.385Z,63.16
2022-12-03T06:53:58.414Z,60.00
2022-12-03T06:54:58.379Z,63.06
2022-12-03T06:55:58.367Z,62.68
2022-12-03T06:56:58.359Z,68.56
2022-12-03T06:57:58.351Z,60.47
2022-12-03T06:58:58.408Z,51.99
2022-12-03T06:59:58.349Z,63.15
2022-12-03T07:00:58.325Z,61.10
2022-12-03T07:01:59.354Z,65.24
2022-12-03T07:02:58.328Z,58.30
2022-12-03T07:03:58.327Z,61.01
2022-12-03T07:04:58.612Z,56.93
2022-12-03T07:05:58.296Z,57.96
2022-12-03T07:06:58.284Z,67.95
2022-12-03T07:07:58.342Z,63.84
2022-12-03T07:08:58.305Z,60.46
2022-12-03T07:09:58.253Z,68.09
2022-12-03T07:10:58.253Z,59.97
2022-12-03T07:11:58.256Z,61.75
2022-12-03T07:12:58.234Z,62.39
2022-12-03T07:14:04.426Z,67.19
2022-12-03T07:15:00.215Z,67.82
2022-12-03T07:15:58.254Z,61.24
2022-12-03T07:16:58.205Z,61.17
2022-12-03T07:17:58.198Z,64.46
2022-12-03T07:18:58.197Z,64.06
2022-12-03T07:19:58.214Z,58.85
2022-12-03T07:20:58.177Z,62.64
2022-12-03T07:21:58.163Z,66.17
2022-12-03T07:22:58.157Z,66.70
2022-12-03T07:23:58.155Z,66.70
2022-12-03T07:24:58.179Z,68.23
2022-12-03T07:25:58.127Z,69.89
2022-12-03T07:26:58.119Z,63.74
2022-12-03T07:27:58.116Z,58.79
2022-12-03T07:28:58.103Z,65.65
2022-12-03T07:29:58.126Z,67.21
2022-12-03T07:30:58.123Z,63.69
2022-12-03T07:31:58.080Z,65.76
2022-12-03T07:32:58.075Z,59.13
2022-12-03T07:33:58.069Z,67.99
2022-12-03T07:34:58.093Z,64.90
2022-12-03T07:35:58.051Z,62.00
2022-12-03T07:36:58.044Z,67.91
2022-12-03T07:37:58.039Z,68.77
2022-12-03T07:38:58.026Z,59.19
2022-12-03T07:39:58.047Z,63.87
2022-12-03T07:40:58.011Z,67.97
2022-12-03T07:41:57.997Z,63.80
2022-12-03T07:42:57.996Z,62.85
2022-12-03T07:43:57.984Z,66.58
2022-12-03T07:44:58.023Z,64.24
2022-12-03T07:45:57.974Z,67.43
2022-12-03T07:46:58.050Z,67.31
2022-12-03T07:47:57.952Z,61.71
2022-12-03T07:48:57.954Z,59.92
2022-12-03T07:49:57.973Z,68.33
2022-12-03T07:50:57.928Z,64.10
2022-12-03T07:51:57.923Z,69.69
2022-12-03T07:52:57.917Z,62.63
2022-12-03T07:53:57.910Z,64.32
2022-12-03T07:54:57.954Z,58.78
2022-12-03T07:55:57.897Z,61.40
2022-12-03T07:57:01.479Z,62.90
2022-12-03T07:57:58.878Z,60.13
2022-12-03T07:58:57.872Z,64.01
2022-12-03T07:59:57.886Z,68.50
2022-12-03T08:00:57.919Z,69.55
2022-12-03T08:01:57.902Z,64.75
2022-12-03T08:02:57.838Z,68.37
2022-12-03T08:03:57.833Z,60.25
2022-12-03T08:04:57.848Z,54.13
2022-12-03T08:05:57.815Z,62.99
2022-12-03T08:06:57.810Z,63.48
2022-12-03T08:07:57.859Z,61.42
2022-12-03T08:08:57.797Z,64.36
2022-12-03T08:09:57.812Z,67.38
2022-12-03T08:10:57.786Z,64.85
2022-12-03T08:11:57.767Z,60.60
2022-12-03T08:12:57.766Z,70.45
2022-12-03T08:13:57.765Z,61.69
2022-12-03T08:14:57.792Z,66.59
2022-12-03T08:15:57.768Z,68.99
2022-12-03T08:16:57.773Z,64.59
2022-12-03T08:17:57.723Z,59.42
2022-12-03T08:18:57.715Z,68.77
2022-12-03T08:19:57.739Z,65.62
2022-12-03T08:20:57.700Z,61.05
2022-12-03T08:22:01.315Z,65.35
2022-12-03T08:22:58.687Z,63.68
2022-12-03T08:23:57.687Z,66.10
2022-12-03T08:24:57.695Z,57.64
2022-12-03T08:25:57.664Z,70.71
2022-12-03T08:26:57.655Z,63.77
2022-12-03T08:27:57.661Z,68.34
2022-12-03T08:28:57.633Z,64.71
2022-12-03T08:29:57.693Z,70.85
2022-12-03T08:30:57.628Z,61.92
2022-12-03T08:31:57.719Z,64.43
2022-12-03T08:32:57.607Z,67.24
2022-12-03T08:33:57.603Z,66.44
2022-12-03T08:34:57.624Z,68.69
2022-12-03T08:35:57.584Z,64.83
2022-12-03T08:36:57.572Z,65.91
2022-12-03T08:37:57.565Z,69.32
2022-12-03T08:38:57.559Z,64.24
2022-12-03T08:39:57.577Z,63.08
2022-12-03T08:40:57.543Z,69.92
2022-12-03T08:41:57.539Z,64.51
2022-12-03T08:42:57.529Z,61.23
2022-12-03T08:43:57.518Z,68.38
2022-12-03T08:44:57.668Z,62.57
2022-12-03T08:45:57.545Z,61.67
2022-12-03T08:46:57.495Z,69.29
2022-12-03T08:47:57.494Z,69.87
2022-12-03T08:48:57.482Z,67.08
2022-12-03T08:49:57.503Z,65.39
2022-12-03T08:50:57.467Z,69.73
2022-12-03T08:51:57.456Z,66.60
2022-12-03T08:52:57.449Z,65.88
2022-12-03T08:54:01.520Z,67.58
2022-12-03T08:54:58.457Z,72.06
2022-12-03T08:55:57.426Z,64.04
2022-12-03T08:56:57.415Z,67.15
2022-12-03T08:57:57.410Z,66.41
2022-12-03T08:58:57.394Z,67.67
2022-12-03T08:59:57.424Z,69.14
2022-12-03T09:00:57.419Z,69.06
2022-12-03T09:01:57.373Z,66.08
2022-12-03T09:02:57.365Z,61.78
2022-12-03T09:03:57.430Z,67.64
2022-12-03T09:04:57.379Z,67.01
2022-12-03T09:05:57.341Z,65.18
2022-12-03T09:06:57.340Z,71.34
2022-12-03T09:07:57.378Z,69.77
2022-12-03T09:08:58.645Z,64.13
2022-12-03T09:09:57.336Z,66.40
2022-12-03T09:10:57.305Z,67.33
2022-12-03T09:11:57.306Z,70.28
2022-12-03T09:12:57.292Z,61.78
2022-12-03T09:13:57.281Z,65.00
2022-12-03T09:14:57.323Z,69.91
2022-12-03T09:15:57.265Z,66.79
2022-12-03T09:16:57.299Z,63.16
2022-12-03T09:17:57.246Z,66.75
2022-12-03T09:18:57.235Z,70.61
2022-12-03T09:19:57.232Z,63.15
2022-12-03T09:20:57.254Z,66.93
2022-12-03T09:21:57.227Z,70.25
2022-12-03T09:22:57.214Z,70.89
2022-12-03T09:23:57.200Z,69.76
2022-12-03T09:24:57.196Z,68.47
2022-12-03T09:25:57.221Z,65.41
2022-12-03T09:26:57.175Z,65.53
2022-12-03T09:27:57.175Z,70.59
2022-12-03T09:28:57.161Z,70.50
2022-12-03T09:29:57.155Z,68.14
2022-12-03T09:30:57.172Z,65.60
2022-12-03T09:31:57.176Z,72.07
2022-12-03T09:32:57.131Z,65.32
2022-12-03T09:33:57.125Z,68.97
2022-12-03T09:34:57.262Z,69.30
2022-12-03T09:35:57.143Z,69.67
2022-12-03T09:36:57.109Z,69.43
2022-12-03T09:37:57.091Z,61.90
2022-12-03T09:38:57.086Z,69.64
2022-12-03T09:39:57.073Z,69.86
2022-12-03T09:40:57.097Z,69.81
2022-12-03T09:41:57.067Z,69.87
2022-12-03T09:42:57.046Z,69.47
2022-12-03T09:44:05.459Z,68.59
2022-12-03T09:44:59.031Z,69.75
2022-12-03T09:45:57.104Z,66.45
2022-12-03T09:46:57.043Z,65.62
2022-12-03T09:47:57.007Z,66.38
2022-12-03T09:48:56.999Z,67.17
2022-12-03T09:49:57.191Z,67.12
2022-12-03T09:50:57.018Z,66.99
2022-12-03T09:51:56.972Z,68.26
2022-12-03T09:52:56.978Z,69.84
2022-12-03T09:53:56.968Z,69.92
2022-12-03T09:54:57.276Z,65.55
2022-12-03T09:55:56.980Z,71.08
2022-12-03T09:56:56.951Z,70.42
2022-12-03T09:57:56.930Z,66.21
2022-12-03T09:58:56.929Z,66.22
2022-12-03T09:59:56.920Z,70.72
2022-12-03T10:00:56.992Z,71.10
2022-12-03T10:01:56.982Z,67.17
2022-12-03T10:02:56.909Z,66.12
2022-12-03T10:03:56.891Z,67.09
2022-12-03T10:04:57.297Z,65.00
2022-12-03T10:05:56.894Z,68.76
2022-12-03T10:07:11.853Z,71.56
2022-12-03T10:07:56.916Z,65.96
2022-12-03T10:08:56.844Z,66.22
2022-12-03T10:09:57.124Z,67.20
2022-12-03T10:10:56.861Z,71.53
2022-12-03T10:11:56.816Z,67.85
2022-12-03T10:12:56.827Z,64.04
2022-12-03T10:13:56.805Z,69.95
2022-12-03T10:14:57.821Z,71.39
2022-12-03T10:15:56.814Z,68.60
2022-12-03T10:16:56.836Z,65.58
2022-12-03T10:17:56.767Z,69.07
2022-12-03T10:18:56.767Z,67.88
2022-12-03T10:19:56.787Z,64.81
2022-12-03T10:20:56.779Z,71.13
2022-12-03T10:21:56.742Z,67.23
2022-12-03T10:22:56.737Z,74.27
2022-12-03T10:23:56.735Z,66.43
2022-12-03T10:24:56.711Z,62.85
2022-12-03T10:25:56.742Z,68.35
2022-12-03T10:26:56.703Z,70.49
2022-12-03T10:27:56.692Z,67.78
2022-12-03T10:28:56.687Z,68.67
2022-12-03T10:29:56.671Z,69.55
2022-12-03T10:30:57.780Z,68.96
2022-12-03T10:31:56.665Z,73.62
2022-12-03T10:32:56.664Z,69.55
2022-12-03T10:33:56.659Z,71.10
2022-12-03T10:34:56.636Z,61.62
2022-12-03T10:35:56.664Z,63.87
2022-12-03T10:36:56.632Z,70.84
2022-12-03T10:37:56.619Z,69.23
2022-12-03T10:38:56.607Z,66.31
2022-12-03T10:39:56.829Z,69.60
2022-12-03T10:40:56.616Z,70.47
2022-12-03T10:41:56.574Z,68.37
2022-12-03T10:42:56.571Z,67.51
2022-12-03T10:43:56.571Z,64.63
2022-12-03T10:44:56.559Z,69.74
2022-12-03T10:46:01.958Z,68.36
2022-12-03T10:46:58.672Z,63.71
2022-12-03T10:47:56.561Z,70.31
2022-12-03T10:48:56.540Z,75.81
2022-12-03T10:49:56.531Z,70.21
2022-12-03T10:50:56.521Z,70.07
2022-12-03T10:51:56.536Z,69.04
2022-12-03T10:52:56.511Z,67.06
2022-12-03T10:53:56.497Z,66.75
2022-12-03T10:54:56.781Z,68.89
2022-12-03T10:55:56.476Z,69.61
2022-12-03T10:56:56.505Z,69.15
2022-12-03T10:57:56.466Z,62.10
2022-12-03T10:58:56.464Z,68.90
2022-12-03T10:59:56.446Z,66.52
2022-12-03T11:00:56.434Z,69.20
2022-12-03T11:01:56.488Z,67.30
2022-12-03T11:02:57.396Z,66.69
2022-12-03T11:03:57.466Z,67.44
2022-12-03T11:04:56.573Z,72.14
2022-12-03T11:05:56.402Z,66.87
2022-12-03T11:06:56.420Z,69.84
2022-12-03T11:07:56.484Z,66.12
2022-12-03T11:08:59.430Z,69.26
2022-12-03T11:09:57.361Z,70.52
2022-12-03T11:10:56.360Z,70.11
2022-12-03T11:11:56.381Z,67.04
2022-12-03T11:12:56.346Z,67.70
2022-12-03T11:13:56.338Z,68.62
2022-12-03T11:14:56.925Z,65.28
2022-12-03T11:15:56.437Z,63.59
2022-12-03T11:16:56.336Z,70.25
2022-12-03T11:17:56.302Z,64.66
2022-12-03T11:18:56.292Z,68.08
2022-12-03T11:19:56.300Z,70.48
2022-12-03T11:20:56.289Z,64.33
2022-12-03T11:21:56.296Z,69.32
2022-12-03T11:22:56.268Z,69.70
2022-12-03T11:23:56.254Z,65.97
2022-12-03T11:24:56.336Z,65.30
2022-12-03T11:25:56.237Z,69.09
2022-12-03T11:26:56.259Z,67.83
2022-12-03T11:27:56.220Z,66.56
2022-12-03T11:28:56.223Z,68.27
2022-12-03T11:29:56.213Z,68.76
2022-12-03T11:30:56.263Z,68.74
2022-12-03T11:31:56.226Z,68.92
2022-12-03T11:32:56.179Z,70.23
2022-12-03T11:33:56.196Z,71.87
2022-12-03T11:34:56.425Z,67.33
2022-12-03T11:35:56.157Z,65.73
2022-12-03T11:37:01.923Z,66.71
2022-12-03T11:37:58.137Z,69.78
2022-12-03T11:38:56.140Z,67.49
2022-12-03T11:39:56.443Z,69.63
2022-12-03T11:40:56.121Z,69.57
2022-12-03T11:41:56.148Z,67.93
2022-12-03T11:42:56.100Z,66.17
2022-12-03T11:43:56.103Z,68.58
2022-12-03T11:44:56.085Z,69.11
2022-12-03T11:46:01.045Z,69.30
2022-12-03T11:46:58.270Z,67.41
2022-12-03T11:47:56.059Z,71.46
2022-12-03T11:48:56.078Z,65.95
2022-12-03T11:49:56.206Z,71.41
2022-12-03T11:50:56.029Z,66.58
2022-12-03T11:51:56.023Z,66.02
2022-12-03T11:52:56.047Z,68.12
2022-12-03T11:53:56.012Z,69.49
2022-12-03T11:54:56.013Z,67.63
2022-12-03T11:55:58.971Z,68.02
2022-12-03T11:56:56.984Z,65.38
2022-12-03T11:57:56.015Z,69.21
2022-12-03T11:58:55.971Z,69.30
2022-12-03T11:59:56.067Z,66.73
2022-12-03T12:00:55.967Z,65.25
2022-12-03T12:01:55.952Z,69.35
2022-12-03T12:02:56.093Z,68.19
2022-12-03T12:03:56.018Z,67.54
2022-12-03T12:04:55.929Z,67.66
2022-12-03T12:05:55.921Z,70.42
2022-12-03T12:06:55.908Z,67.11
2022-12-03T12:07:56.232Z,69.25
2022-12-03T12:08:55.891Z,67.44
2022-12-03T12:09:56.095Z,64.42
2022-12-03T12:10:55.873Z,68.72
2022-12-03T12:11:55.863Z,71.17
2022-12-03T12:12:55.891Z,71.24
2022-12-03T12:13:55.853Z,69.10
2022-12-03T12:14:55.859Z,67.01
2022-12-03T12:15:55.875Z,67.84
2022-12-03T12:16:55.816Z,64.69
2022-12-03T12:17:55.845Z,71.32
2022-12-03T12:18:56.396Z,71.32
2022-12-03T12:19:56.345Z,68.60
2022-12-03T12:20:55.798Z,63.03
2022-12-03T12:21:55.780Z,69.29
2022-12-03T12:22:55.803Z,71.22
2022-12-03T12:23:55.768Z,65.65
2022-12-03T12:24:55.751Z,68.21
2022-12-03T12:25:55.747Z,66.61
2022-12-03T12:26:55.739Z,67.90
2022-12-03T12:27:55.762Z,67.28
2022-12-03T12:28:55.728Z,66.67
2022-12-03T12:29:56.150Z,70.89
2022-12-03T12:30:55.715Z,66.17
2022-12-03T12:31:55.750Z,61.43
2022-12-03T12:32:55.728Z,67.33
2022-12-03T12:33:55.689Z,68.74
2022-12-03T12:34:55.687Z,70.51
2022-12-03T12:35:55.670Z,70.66
2022-12-03T12:36:55.661Z,68.46
2022-12-03T12:37:59.579Z,69.70
2022-12-03T12:38:56.647Z,65.88
2022-12-03T12:39:55.986Z,69.37
2022-12-03T12:40:55.638Z,67.92
2022-12-03T12:41:55.611Z,69.02
2022-12-03T12:42:56.645Z,68.53
2022-12-03T12:43:55.607Z,70.16
2022-12-03T12:44:55.603Z,72.23
2022-12-03T12:45:55.651Z,74.48
2022-12-03T12:46:55.650Z,64.43
2022-12-03T12:47:55.669Z,71.71
2022-12-03T12:48:59.653Z,71.60
2022-12-03T12:49:56.986Z,68.82
2022-12-03T12:50:56.554Z,67.81
2022-12-03T12:51:55.548Z,69.81